Time;durP1;ratioP1;P1;durP2;ratioP2;P2;SDS_P1;SDS_P2;PMS_P1;PMS_P2;Temp;Humidity;BMP_temperature;BMP_pressure;BME280_temperature;BME280_humidity;BME280_pressure;Samples;Min_cycle;Max_cycle;Signal;HPM_P1;HPM_P2
2021/08/26 00:00:49;;;;;;;;;;;26.10;99.90;;;;;;1871903;75;20628;-93
2021/08/26 00:06:26;;;;;;;;;;;26.20;99.90;;;;;;1859587;75;20231;-93
2021/08/26 00:08:58;;;;;;;;;;;26.20;99.90;;;;;;1878505;75;20192;-93
2021/08/26 00:11:48;;;;;;;;;;;26.20;99.90;;;;;;1859730;75;20438;-92
2021/08/26 00:14:24;;;;;;;;;;;26.30;99.90;;;;;;1863373;75;20140;-92
2021/08/26 00:16:54;;;;;;;;;;;26.20;99.90;;;;;;1874011;75;20504;-92
2021/08/26 00:19:30;;;;;;;;;;;26.20;99.90;;;;;;1865007;75;20329;-92
2021/08/26 00:21:59;;;;;;;;;;;26.30;99.90;;;;;;1871984;75;20196;-90
2021/08/26 00:24:28;;;;;;;;;;;26.30;99.90;;;;;;1871807;75;20235;-92
2021/08/26 00:26:58;;;;;;;;;;;26.30;99.90;;;;;;1869901;76;20124;-92
2021/08/26 00:29:27;;;;;;;;;;;26.30;99.90;;;;;;1873558;75;20432;-93
2021/08/26 00:32:00;;;;;;;;;;;26.30;99.90;;;;;;1874448;75;20181;-93
2021/08/26 00:34:30;;;;;;;;;;;26.40;99.90;;;;;;1873473;75;20230;-93
2021/08/26 00:36:59;;;;;;;;;;;26.40;99.90;;;;;;1827387;77;20214;-93
2021/08/26 00:39:31;;;;;;;;;;;26.50;99.90;;;;;;1801166;78;20298;-90
2021/08/26 00:42:01;;;;;;;;;;;26.50;99.90;;;;;;1876896;75;20184;-93
2021/08/26 00:44:33;;;;;;;;;;;26.50;99.90;;;;;;1874366;75;20220;-94
2021/08/26 00:47:06;;;;;;;;;;;26.50;99.90;;;;;;1877531;75;20212;-92
2021/08/26 00:49:52;;;;;;;;;;;26.50;99.90;;;;;;1876982;75;20474;-93
2021/08/26 00:52:22;;;;;;;;;;;26.50;99.90;;;;;;1864819;75;20227;-94
2021/08/26 00:54:53;;;;;;;;;;;26.50;99.90;;;;;;1877906;75;20547;-94
2021/08/26 00:57:23;;;;;;;;;;;26.60;99.90;;;;;;1878534;75;20168;-93
2021/08/26 00:59:56;;;;;;;;;;;26.60;99.90;;;;;;1878831;75;20235;-77
2021/08/26 01:02:27;;;;;;;;;;;26.60;99.90;;;;;;1839277;77;20710;-78
2021/08/26 01:04:58;;;;;;;;;;;26.60;99.90;;;;;;1808312;77;20275;-78
2021/08/26 01:07:29;;;;;;;;;;;26.60;99.90;;;;;;1837133;76;20473;-79
2021/08/26 01:10:00;;;;;;;;;;;26.60;99.90;;;;;;1849990;75;20191;-79
2021/08/26 01:12:30;;;;;;;;;;;26.70;99.90;;;;;;1870119;75;20729;-79
2021/08/26 01:15:02;;;;;;;;;;;26.70;99.90;;;;;;1866988;75;20246;-80
2021/08/26 01:17:32;;;;;;;;;;;26.80;99.90;;;;;;1870791;75;20160;-79
2021/08/26 01:20:03;;;;;;;;;;;26.80;99.90;;;;;;1865652;75;20176;-79
2021/08/26 01:22:34;;;;;;;;;;;26.80;99.90;;;;;;1870502;75;20167;-79
2021/08/26 01:25:05;;;;;;;;;;;26.80;99.90;;;;;;1801854;78;20206;-79
2021/08/26 01:27:36;;;;;;;;;;;26.80;99.90;;;;;;1826578;77;20967;-79
2021/08/26 01:30:07;;;;;;;;;;;26.80;99.90;;;;;;1815795;77;20205;-80
2021/08/26 01:32:39;;;;;;;;;;;26.80;99.90;;;;;;1828540;77;20634;-79
2021/08/26 01:35:09;;;;;;;;;;;26.80;99.90;;;;;;1827224;77;20133;-79
2021/08/26 01:37:40;;;;;;;;;;;26.90;99.90;;;;;;1824806;77;20128;-80
2021/08/26 01:40:10;;;;;;;;;;;26.90;99.90;;;;;;1827050;77;20225;-79
2021/08/26 01:42:44;;;;;;;;;;;26.90;99.90;;;;;;1762439;79;20202;-80
2021/08/26 01:45:12;;;;;;;;;;;27.00;99.90;;;;;;1830372;77;20175;-80
2021/08/26 01:47:45;;;;;;;;;;;27.00;99.90;;;;;;1826098;77;20229;-80
2021/08/26 01:50:14;;;;;;;;;;;27.10;99.90;;;;;;1829838;77;20244;-79
2021/08/26 01:52:44;;;;;;;;;;;27.10;99.80;;;;;;1826179;77;20262;-79
2021/08/26 01:55:14;;;;;;;;;;;27.10;99.60;;;;;;1827881;77;20209;-79
2021/08/26 01:57:44;;;;;;;;;;;27.20;99.40;;;;;;1826600;77;20254;-80
2021/08/26 02:00:14;;;;;;;;;;;27.20;99.30;;;;;;1821136;77;20234;-80
2021/08/26 02:02:44;;;;;;;;;;;27.20;99.30;;;;;;1830800;77;20169;-78
2021/08/26 02:05:15;;;;;;;;;;;27.30;99.20;;;;;;1826300;77;20212;-80
2021/08/26 02:07:46;;;;;;;;;;;27.30;99.00;;;;;;1827037;77;20229;-80
2021/08/26 02:10:19;;;;;;;;;;;27.30;98.90;;;;;;1828868;77;20202;-79
2021/08/26 02:12:59;;;;;;;;;;;27.40;98.80;;;;;;1827756;77;20150;-80
2021/08/26 02:15:29;;;;;;;;;;;27.40;98.80;;;;;;1821468;77;20247;-80
2021/08/26 02:18:00;;;;;;;;;;;27.50;98.90;;;;;;1829983;77;20256;-80
2021/08/26 02:20:33;;;;;;;;;;;27.40;98.80;;;;;;1825377;77;20135;-80
2021/08/26 02:23:03;;;;;;;;;;;27.50;98.70;;;;;;1822863;77;20748;-80
2021/08/26 02:25:34;;;;;;;;;;;27.50;98.70;;;;;;1855510;75;20201;-79
2021/08/26 02:28:03;;;;;;;;;;;27.60;98.70;;;;;;1861992;75;20207;-80
2021/08/26 02:30:43;;;;;;;;;;;27.60;98.50;;;;;;1861876;75;20574;-79
2021/08/26 02:33:12;;;;;;;;;;;27.60;98.60;;;;;;1818214;77;20198;-80
2021/08/26 02:35:45;;;;;;;;;;;27.60;98.70;;;;;;1802099;77;20232;-80
2021/08/26 02:38:14;;;;;;;;;;;27.70;98.60;;;;;;1770922;79;20194;-79
2021/08/26 02:40:44;;;;;;;;;;;27.70;98.60;;;;;;1804154;78;20192;-80
2021/08/26 02:43:14;;;;;;;;;;;27.70;98.70;;;;;;1804894;77;20235;-79
2021/08/26 02:45:44;;;;;;;;;;;27.70;98.60;;;;;;1806897;78;20316;-80
2021/08/26 02:48:17;;;;;;;;;;;27.80;98.70;;;;;;1807773;78;20256;-78
2021/08/26 02:50:48;;;;;;;;;;;27.80;98.40;;;;;;1811104;78;20196;-77
2021/08/26 02:53:18;;;;;;;;;;;27.90;98.00;;;;;;1811206;77;20161;-79
2021/08/26 02:55:48;;;;;;;;;;;28.00;98.00;;;;;;1804540;78;20185;-79
2021/08/26 02:58:19;;;;;;;;;;;28.00;98.10;;;;;;1802970;78;20642;-79
2021/08/26 03:00:52;;;;;;;;;;;28.10;98.10;;;;;;1802494;78;20208;-77
2021/08/26 03:03:28;;;;;;;;;;;28.20;97.80;;;;;;1803677;77;20215;-80
2021/08/26 03:05:54;;;;;;;;;;;28.20;97.60;;;;;;1794303;78;20497;-79
2021/08/26 03:08:24;;;;;;;;;;;28.30;97.80;;;;;;1804999;78;20227;-79
2021/08/26 03:10:58;;;;;;;;;;;28.30;97.70;;;;;;1805484;77;20495;-78
2021/08/26 03:13:27;;;;;;;;;;;28.30;97.50;;;;;;1804697;78;20497;-78
2021/08/26 03:15:58;;;;;;;;;;;28.40;97.50;;;;;;1806001;78;20575;-79
2021/08/26 03:18:28;;;;;;;;;;;28.40;97.20;;;;;;1808393;77;20200;-79
2021/08/26 03:20:58;;;;;;;;;;;28.50;97.20;;;;;;1809655;78;20268;-79
2021/08/26 03:23:27;;;;;;;;;;;28.60;96.90;;;;;;1794282;79;20212;-79
2021/08/26 03:25:57;;;;;;;;;;;28.80;96.60;;;;;;1798146;77;20213;-80
2021/08/26 03:28:27;;;;;;;;;;;29.00;96.50;;;;;;1827905;77;20183;-79
2021/08/26 03:30:57;;;;;;;;;;;29.10;95.90;;;;;;1819197;77;20626;-80
2021/08/26 03:33:26;;;;;;;;;;;29.10;95.60;;;;;;1833133;77;20201;-80
2021/08/26 03:35:57;;;;;;;;;;;29.10;95.80;;;;;;1823638;78;20186;-79
2021/08/26 03:38:26;;;;;;;;;;;29.20;96.00;;;;;;1799419;79;20235;-78
2021/08/26 03:40:56;;;;;;;;;;;29.20;95.30;;;;;;1799179;79;20200;-79
2021/08/26 03:43:26;;;;;;;;;;;29.20;95.10;;;;;;1823826;77;20166;-79
2021/08/26 03:45:56;;;;;;;;;;;29.30;95.50;;;;;;1796051;79;20251;-79
2021/08/26 03:48:26;;;;;;;;;;;29.30;95.70;;;;;;1824040;78;20239;-77
2021/08/26 03:50:55;;;;;;;;;;;29.30;95.40;;;;;;1832135;78;20193;-79
2021/08/26 03:53:25;;;;;;;;;;;29.30;95.00;;;;;;1813757;78;20208;-78
2021/08/26 03:55:54;;;;;;;;;;;29.40;95.50;;;;;;1824133;77;20160;-77
2021/08/26 03:58:24;;;;;;;;;;;29.50;94.90;;;;;;1794514;78;20549;-79
2021/08/26 04:00:54;;;;;;;;;;;29.60;95.00;;;;;;1826775;77;20175;-78
2021/08/26 04:03:24;;;;;;;;;;;29.60;95.00;;;;;;1830212;77;20139;-78
2021/08/26 04:05:56;;;;;;;;;;;29.40;94.50;;;;;;1826091;77;20245;-78
2021/08/26 04:08:26;;;;;;;;;;;29.40;94.50;;;;;;1826599;77;20139;-79
2021/08/26 04:10:55;;;;;;;;;;;29.30;94.80;;;;;;1821468;77;20273;-77
2021/08/26 04:13:25;;;;;;;;;;;29.30;95.60;;;;;;1806695;79;20401;-79
2021/08/26 04:15:55;;;;;;;;;;;29.40;94.90;;;;;;1792661;79;20673;-79
2021/08/26 04:18:27;;;;;;;;;;;29.60;93.80;;;;;;1804722;78;20186;-78
2021/08/26 04:21:01;;;;;;;;;;;29.70;93.10;;;;;;1806313;79;20224;-79
2021/08/26 04:23:29;;;;;;;;;;;29.80;93.00;;;;;;1802106;79;20208;-76
2021/08/26 04:26:02;;;;;;;;;;;29.80;93.50;;;;;;1800051;78;20227;-79
2021/08/26 04:28:33;;;;;;;;;;;29.90;92.60;;;;;;1803162;78;20212;-80
2021/08/26 04:31:02;;;;;;;;;;;30.00;92.20;;;;;;1807003;78;20191;-80
2021/08/26 04:33:35;;;;;;;;;;;30.10;92.60;;;;;;1799074;79;20474;-79
2021/08/26 04:36:11;;;;;;;;;;;30.30;92.10;;;;;;1805407;79;20232;-81
2021/08/26 04:38:38;;;;;;;;;;;30.40;92.00;;;;;;1806678;79;20231;-79
2021/08/26 04:41:08;;;;;;;;;;;30.60;91.40;;;;;;1800119;78;20600;-80
2021/08/26 04:43:38;;;;;;;;;;;30.70;91.10;;;;;;1806138;78;20165;-79
2021/08/26 04:46:07;;;;;;;;;;;30.80;91.50;;;;;;1803596;78;20451;-80
2021/08/26 04:48:37;;;;;;;;;;;30.80;91.40;;;;;;1804102;78;20184;-80
2021/08/26 04:51:08;;;;;;;;;;;30.80;90.60;;;;;;1775813;79;20158;-79
2021/08/26 04:53:38;;;;;;;;;;;30.80;90.80;;;;;;1814703;77;20299;-80
2021/08/26 04:56:08;;;;;;;;;;;30.90;90.50;;;;;;1808850;77;20486;-79
2021/08/26 04:58:41;;;;;;;;;;;31.00;91.30;;;;;;1812261;77;20239;-79
2021/08/26 05:01:14;;;;;;;;;;;31.00;90.60;;;;;;1812959;77;20196;-79
2021/08/26 05:03:44;;;;;;;;;;;31.10;90.50;;;;;;1813393;77;20240;-81
2021/08/26 05:06:14;;;;;;;;;;;31.30;90.70;;;;;;1774449;79;20461;-79
2021/08/26 05:08:44;;;;;;;;;;;31.40;88.30;;;;;;1745100;80;20240;-79
2021/08/26 05:11:17;;;;;;;;;;;31.50;86.40;;;;;;1810670;78;20405;-79
2021/08/26 05:13:47;;;;;;;;;;;31.50;86.70;;;;;;1810035;78;20185;-82
2021/08/26 05:16:19;;;;;;;;;;;31.60;90.00;;;;;;1806425;78;20198;-78
2021/08/26 05:18:50;;;;;;;;;;;31.60;86.40;;;;;;1807510;78;20175;-80
2021/08/26 05:21:19;;;;;;;;;;;31.70;86.40;;;;;;1765139;80;20216;-80
2021/08/26 05:23:49;;;;;;;;;;;31.70;89.80;;;;;;1811366;77;20296;-78
2021/08/26 05:26:19;;;;;;;;;;;31.80;86.10;;;;;;1834345;75;20456;-78
2021/08/26 05:28:48;;;;;;;;;;;32.00;85.00;;;;;;1867126;75;20163;-79
2021/08/26 05:31:18;;;;;;;;;;;32.10;83.90;;;;;;1874648;75;20162;-80
2021/08/26 05:33:47;;;;;;;;;;;32.10;84.90;;;;;;1868059;75;20517;-80
2021/08/26 05:36:20;;;;;;;;;;;32.20;83.70;;;;;;1824398;77;20291;-80
2021/08/26 05:38:50;;;;;;;;;;;32.10;83.20;;;;;;1801774;78;20214;-81
2021/08/26 05:41:21;;;;;;;;;;;32.20;85.40;;;;;;1784316;79;20243;-82
2021/08/26 05:43:52;;;;;;;;;;;32.20;82.50;;;;;;1793923;78;20203;-84
2021/08/26 05:46:24;;;;;;;;;;;32.20;86.60;;;;;;1832191;77;20139;-81
2021/08/26 05:48:54;;;;;;;;;;;32.30;84.60;;;;;;1796381;78;20181;-82
2021/08/26 05:51:27;;;;;;;;;;;32.30;84.90;;;;;;1831993;77;20165;-82
2021/08/26 05:53:56;;;;;;;;;;;32.30;83.10;;;;;;1799233;77;20196;-82
2021/08/26 05:56:27;;;;;;;;;;;32.30;85.00;;;;;;1830643;78;20170;-82
2021/08/26 05:58:59;;;;;;;;;;;32.30;84.80;;;;;;1868533;75;20259;-81
2021/08/26 06:01:34;;;;;;;;;;;32.30;81.60;;;;;;1861661;75;20188;-79
2021/08/26 06:04:04;;;;;;;;;;;32.40;83.60;;;;;;1863124;75;20427;-78
2021/08/26 06:06:33;;;;;;;;;;;32.40;83.80;;;;;;1867279;75;20212;-79
2021/08/26 06:09:05;;;;;;;;;;;32.40;81.30;;;;;;1860853;75;20171;-78
2021/08/26 06:11:35;;;;;;;;;;;32.30;82.20;;;;;;1823305;77;20225;-79
2021/08/26 06:14:05;;;;;;;;;;;32.20;81.50;;;;;;1823037;77;20360;-77
2021/08/26 06:16:35;;;;;;;;;;;32.10;83.10;;;;;;1862451;76;20487;-77
2021/08/26 06:19:04;;;;;;;;;;;32.10;83.30;;;;;;1823418;77;20377;-79
2021/08/26 06:21:34;;;;;;;;;;;32.10;81.70;;;;;;1866248;76;20124;-77
2021/08/26 06:24:06;;;;;;;;;;;32.20;82.30;;;;;;1870453;75;20523;-80
2021/08/26 06:26:37;;;;;;;;;;;32.10;83.70;;;;;;1856257;75;20173;-77
2021/08/26 06:29:07;;;;;;;;;;;32.00;83.20;;;;;;1856278;76;20540;-77
2021/08/26 06:31:36;;;;;;;;;;;32.00;83.50;;;;;;1857557;76;20241;-79
2021/08/26 06:34:10;;;;;;;;;;;32.00;83.10;;;;;;1850185;75;20184;-80
2021/08/26 06:36:39;;;;;;;;;;;32.00;82.30;;;;;;1845419;77;20152;-80
2021/08/26 06:39:28;;;;;;;;;;;32.10;82.20;;;;;;1820228;77;20166;-79
2021/08/26 06:42:07;;;;;;;;;;;32.10;82.70;;;;;;1800881;79;20180;-76
2021/08/26 06:44:36;;;;;;;;;;;32.20;81.10;;;;;;1802123;78;20243;-77
2021/08/26 06:47:06;;;;;;;;;;;32.20;80.60;;;;;;1798959;78;20645;-78
2021/08/26 06:49:37;;;;;;;;;;;32.20;82.60;;;;;;1803607;78;20219;-77
2021/08/26 06:52:07;;;;;;;;;;;32.10;83.50;;;;;;1800690;79;20259;-78
2021/08/26 06:54:38;;;;;;;;;;;32.10;83.40;;;;;;1816754;78;20147;-76
2021/08/26 06:57:12;;;;;;;;;;;32.00;80.30;;;;;;1818070;79;20453;-77
2021/08/26 06:59:43;;;;;;;;;;;32.10;82.10;;;;;;1784158;79;20142;-78
2021/08/26 07:02:13;;;;;;;;;;;32.00;79.90;;;;;;1771917;80;20171;-77
2021/08/26 07:04:44;;;;;;;;;;;31.90;80.00;;;;;;1806751;78;20133;-79
2021/08/26 07:07:13;;;;;;;;;;;31.90;79.90;;;;;;1801467;78;20137;-78
2021/08/26 07:09:46;;;;;;;;;;;31.90;81.60;;;;;;1807175;78;20207;-79
2021/08/26 07:12:19;;;;;;;;;;;31.90;80.90;;;;;;1824431;77;20208;-78
2021/08/26 07:14:51;;;;;;;;;;;32.00;78.90;;;;;;1825653;77;20218;-77
2021/08/26 07:17:20;;;;;;;;;;;32.00;79.00;;;;;;1818320;77;20214;-77
2021/08/26 07:19:50;;;;;;;;;;;32.10;79.50;;;;;;1812397;77;20421;-76
2021/08/26 07:22:23;;;;;;;;;;;32.20;81.90;;;;;;1807625;78;20168;-77
2021/08/26 07:25:45;;;;;;;;;;;32.20;78.80;;;;;;1766558;79;20236;-77
2021/08/26 07:27:55;;;;;;;;;;;32.20;80.20;;;;;;1776061;79;20207;-77
2021/08/26 07:30:26;;;;;;;;;;;32.20;78.90;;;;;;1784310;79;20510;-78
2021/08/26 07:33:00;;;;;;;;;;;32.20;79.80;;;;;;1784948;79;20503;-78
2021/08/26 07:35:29;;;;;;;;;;;32.20;80.70;;;;;;1790656;79;20179;-81
2021/08/26 07:38:06;;;;;;;;;;;32.20;77.20;;;;;;1780486;79;20356;-77
2021/08/26 07:40:38;;;;;;;;;;;32.30;78.40;;;;;;1810351;77;20159;-76
2021/08/26 07:43:08;;;;;;;;;;;32.30;76.90;;;;;;1826413;77;20164;-75
2021/08/26 07:45:37;;;;;;;;;;;32.40;77.10;;;;;;1823932;77;20774;-79
2021/08/26 07:48:07;;;;;;;;;;;32.40;78.70;;;;;;1819005;77;20206;-79
2021/08/26 07:50:37;;;;;;;;;;;32.40;75.90;;;;;;1822869;77;20425;-76
2021/08/26 07:53:09;;;;;;;;;;;32.30;76.70;;;;;;1818696;77;20432;-78
2021/08/26 07:55:42;;;;;;;;;;;32.30;75.90;;;;;;1812634;77;20247;-75
2021/08/26 07:58:12;;;;;;;;;;;32.30;76.00;;;;;;1811102;77;20546;-78
2021/08/26 08:00:45;;;;;;;;;;;32.30;77.10;;;;;;1818927;77;20185;-79
2021/08/26 08:03:14;;;;;;;;;;;32.20;77.40;;;;;;1808717;77;20724;-77
2021/08/26 08:05:47;;;;;;;;;;;32.20;78.10;;;;;;1812028;77;20162;-79
2021/08/26 08:08:19;;;;;;;;;;;32.10;78.20;;;;;;1811796;78;20209;-79
2021/08/26 08:10:50;;;;;;;;;;;32.10;78.10;;;;;;1819468;78;20224;-77
2021/08/26 08:13:19;;;;;;;;;;;32.00;78.40;;;;;;1814576;77;20164;-77
2021/08/26 08:15:49;;;;;;;;;;;32.00;78.60;;;;;;1813391;79;20867;-79
2021/08/26 08:18:25;;;;;;;;;;;32.00;78.90;;;;;;1813907;78;20163;-80
2021/08/26 08:20:52;;;;;;;;;;;32.00;79.30;;;;;;1815262;79;20191;-81
2021/08/26 08:23:25;;;;;;;;;;;32.10;79.40;;;;;;1811996;77;20188;-79
2021/08/26 08:25:54;;;;;;;;;;;32.10;79.40;;;;;;1815288;79;20184;-78
2021/08/26 08:28:24;;;;;;;;;;;32.10;79.40;;;;;;1802476;79;20580;-76
2021/08/26 08:30:56;;;;;;;;;;;32.10;78.90;;;;;;1803184;79;20228;-78
2021/08/26 08:33:26;;;;;;;;;;;32.00;79.50;;;;;;1829630;77;20262;-77
2021/08/26 08:35:55;;;;;;;;;;;31.90;79.40;;;;;;1807397;78;20213;-78
2021/08/26 08:38:25;;;;;;;;;;;31.80;80.00;;;;;;1811575;77;20192;-80
2021/08/26 08:40:56;;;;;;;;;;;31.80;80.50;;;;;;1805152;78;20192;-80
2021/08/26 08:43:27;;;;;;;;;;;31.90;80.50;;;;;;1804227;78;20156;-78
2021/08/26 08:45:59;;;;;;;;;;;31.90;80.40;;;;;;1866657;75;20156;-80
2021/08/26 08:48:29;;;;;;;;;;;31.90;80.50;;;;;;1868855;75;20168;-78
2021/08/26 08:50:59;;;;;;;;;;;32.00;80.40;;;;;;1867990;75;20255;-78
2021/08/26 08:53:28;;;;;;;;;;;32.00;80.60;;;;;;1862141;76;20233;-77
2021/08/26 08:55:58;;;;;;;;;;;31.90;80.40;;;;;;1868284;75;20254;-78
2021/08/26 08:58:28;;;;;;;;;;;31.90;80.50;;;;;;1822902;77;20493;-77
2021/08/26 09:00:57;;;;;;;;;;;31.80;80.70;;;;;;1830365;77;20220;-78
2021/08/26 09:03:28;;;;;;;;;;;31.80;80.90;;;;;;1867968;75;20116;-76
2021/08/26 09:05:58;;;;;;;;;;;31.80;81.40;;;;;;1866053;75;20485;-78
2021/08/26 09:08:31;;;;;;;;;;;31.80;81.20;;;;;;1867792;75;20129;-79
2021/08/26 09:11:02;;;;;;;;;;;31.80;80.90;;;;;;1798708;78;20209;-79
2021/08/26 09:13:33;;;;;;;;;;;31.80;81.30;;;;;;1790717;78;20211;-78
2021/08/26 09:16:09;;;;;;;;;;;31.80;81.20;;;;;;1871913;75;20229;-78
2021/08/26 09:18:40;;;;;;;;;;;31.80;81.50;;;;;;1864604;75;20120;-78
2021/08/26 09:21:11;;;;;;;;;;;31.80;81.20;;;;;;1864423;75;20420;-77
2021/08/26 09:23:42;;;;;;;;;;;31.80;80.50;;;;;;1868801;75;20518;-78
2021/08/26 09:26:16;;;;;;;;;;;31.80;81.90;;;;;;1823069;77;20253;-79
2021/08/26 09:28:45;;;;;;;;;;;31.80;81.40;;;;;;1887051;75;20591;-80
2021/08/26 09:31:16;;;;;;;;;;;31.80;81.50;;;;;;1862290;75;20159;-80
2021/08/26 09:33:47;;;;;;;;;;;31.80;82.00;;;;;;1861948;75;20219;-78
2021/08/26 09:36:18;;;;;;;;;;;31.70;82.10;;;;;;1865827;75;20209;-77
2021/08/26 09:38:48;;;;;;;;;;;31.80;82.30;;;;;;1865251;75;20512;-80
2021/08/26 09:41:19;;;;;;;;;;;31.70;82.40;;;;;;1864829;75;20273;-78
2021/08/26 09:43:53;;;;;;;;;;;31.70;82.70;;;;;;1866970;75;20644;-78
2021/08/26 09:46:25;;;;;;;;;;;31.70;82.90;;;;;;1870953;75;20200;-78
2021/08/26 09:48:56;;;;;;;;;;;31.60;82.70;;;;;;1866295;75;20235;-78
2021/08/26 09:51:26;;;;;;;;;;;31.60;83.10;;;;;;1869638;75;20190;-79
2021/08/26 09:53:56;;;;;;;;;;;31.60;82.30;;;;;;1861801;75;20439;-79
2021/08/26 09:56:26;;;;;;;;;;;31.50;82.20;;;;;;1870616;76;20180;-78
2021/08/26 09:58:56;;;;;;;;;;;31.50;83.40;;;;;;1870964;75;20912;-78
2021/08/26 10:01:26;;;;;;;;;;;31.50;86.40;;;;;;1869895;76;20256;-80
2021/08/26 10:03:56;;;;;;;;;;;31.50;87.20;;;;;;1861710;76;20230;-81
2021/08/26 10:06:26;;;;;;;;;;;31.30;88.50;;;;;;1870791;75;20146;-80
2021/08/26 10:08:58;;;;;;;;;;;31.30;87.60;;;;;;1865522;76;20211;-76
2021/08/26 10:11:31;;;;;;;;;;;31.10;89.00;;;;;;1865566;76;20155;-77
2021/08/26 10:14:04;;;;;;;;;;;31.10;90.10;;;;;;1868278;76;20207;-78
2021/08/26 10:16:33;;;;;;;;;;;31.00;90.20;;;;;;1868253;75;20203;-81
2021/08/26 10:19:03;;;;;;;;;;;30.90;89.90;;;;;;1824617;77;20197;-77
2021/08/26 10:21:34;;;;;;;;;;;30.90;89.70;;;;;;1780924;79;20367;-77
2021/08/26 10:24:03;;;;;;;;;;;30.80;89.70;;;;;;1803046;78;20131;-76
2021/08/26 10:26:33;;;;;;;;;;;30.80;90.10;;;;;;1874239;76;20580;-77
2021/08/26 10:29:04;;;;;;;;;;;30.80;89.80;;;;;;1863742;76;20484;-79
2021/08/26 10:31:38;;;;;;;;;;;30.70;89.70;;;;;;1858376;75;20202;-76
2021/08/26 10:34:13;;;;;;;;;;;30.70;90.00;;;;;;1861706;76;20396;-79
2021/08/26 10:36:44;;;;;;;;;;;30.70;90.00;;;;;;1858444;76;20240;-78
2021/08/26 10:39:15;;;;;;;;;;;30.70;89.70;;;;;;1827310;78;20178;-79
2021/08/26 10:41:45;;;;;;;;;;;30.60;90.20;;;;;;1787060;79;20246;-77
2021/08/26 10:44:15;;;;;;;;;;;30.60;90.00;;;;;;1821746;78;20691;-77
2021/08/26 10:46:48;;;;;;;;;;;30.60;89.80;;;;;;1747266;81;20580;-80
2021/08/26 10:49:22;;;;;;;;;;;30.60;89.90;;;;;;1759568;80;20187;-76
2021/08/26 10:51:53;;;;;;;;;;;30.70;89.90;;;;;;1763568;80;20212;-75
2021/08/26 10:54:22;;;;;;;;;;;30.70;89.80;;;;;;1759666;80;20174;-78
2021/08/26 10:56:52;;;;;;;;;;;30.70;89.70;;;;;;1768835;80;20238;-77
2021/08/26 10:59:26;;;;;;;;;;;30.70;89.70;;;;;;1757743;80;20167;-76
2021/08/26 11:02:03;;;;;;;;;;;30.70;89.60;;;;;;1756200;80;20697;-79
2021/08/26 11:04:33;;;;;;;;;;;30.70;89.40;;;;;;1770427;80;20419;-80
2021/08/26 11:07:04;;;;;;;;;;;30.60;89.30;;;;;;1771788;80;20195;-78
2021/08/26 11:09:35;;;;;;;;;;;30.60;89.40;;;;;;1776789;80;20121;-77
2021/08/26 11:12:09;;;;;;;;;;;30.60;89.50;;;;;;1766602;80;20217;-77
2021/08/26 11:14:41;;;;;;;;;;;30.60;89.60;;;;;;1772423;80;20378;-79
2021/08/26 11:17:12;;;;;;;;;;;30.60;89.50;;;;;;1771814;80;20392;-78
2021/08/26 11:19:41;;;;;;;;;;;30.60;89.50;;;;;;1770556;80;20181;-77
2021/08/26 11:22:11;;;;;;;;;;;30.60;89.30;;;;;;1769768;79;20224;-78
2021/08/26 11:24:41;;;;;;;;;;;30.60;89.20;;;;;;1777907;80;20211;-77
2021/08/26 11:27:13;;;;;;;;;;;30.60;89.50;;;;;;1773799;80;20284;-79
2021/08/26 11:29:44;;;;;;;;;;;30.60;89.40;;;;;;1775960;79;20244;-78
2021/08/26 11:32:18;;;;;;;;;;;30.60;89.40;;;;;;1781208;76;20126;-79
2021/08/26 11:34:49;;;;;;;;;;;30.60;89.50;;;;;;1840350;77;20159;-78
2021/08/26 11:37:22;;;;;;;;;;;30.50;89.40;;;;;;1878529;75;20754;-77
2021/08/26 11:39:59;;;;;;;;;;;30.50;89.60;;;;;;1872828;75;20213;-78
2021/08/26 11:42:29;;;;;;;;;;;30.50;89.70;;;;;;1800511;76;20149;-82
2021/08/26 11:45:12;;;;;;;;;;;30.50;89.80;;;;;;1834858;77;20230;-77
2021/08/26 11:47:42;;;;;;;;;;;30.50;90.00;;;;;;1868161;76;20194;-77
2021/08/26 11:50:13;;;;;;;;;;;30.50;90.00;;;;;;1838021;76;20265;-76
2021/08/26 11:52:44;;;;;;;;;;;30.50;89.90;;;;;;1871806;76;20404;-76
2021/08/26 11:55:16;;;;;;;;;;;30.40;89.90;;;;;;1862810;76;20218;-77
2021/08/26 11:57:45;;;;;;;;;;;30.40;90.00;;;;;;1873325;76;20199;-77
2021/08/26 12:00:16;;;;;;;;;;;30.40;90.00;;;;;;1824554;77;20188;-77
2021/08/26 12:02:47;;;;;;;;;;;30.30;89.90;;;;;;1775926;79;20228;-77
2021/08/26 12:05:18;;;;;;;;;;;30.30;90.00;;;;;;1833284;77;20611;-76
2021/08/26 12:07:50;;;;;;;;;;;30.30;90.00;;;;;;1824382;77;20170;-76
2021/08/26 12:10:21;;;;;;;;;;;30.20;90.30;;;;;;1877184;76;20227;-77
2021/08/26 12:12:51;;;;;;;;;;;30.20;90.10;;;;;;1885377;76;20299;-77
2021/08/26 12:15:25;;;;;;;;;;;30.30;90.20;;;;;;1886202;76;20196;-78
2021/08/26 12:17:54;;;;;;;;;;;30.20;90.20;;;;;;1832824;77;20174;-79
2021/08/26 12:20:24;;;;;;;;;;;30.20;90.30;;;;;;1808678;78;20178;-77
2021/08/26 12:22:54;;;;;;;;;;;30.20;90.50;;;;;;1802583;78;20172;-78
2021/08/26 12:25:25;;;;;;;;;;;30.20;90.60;;;;;;1873871;76;20293;-78
2021/08/26 12:27:57;;;;;;;;;;;30.20;90.40;;;;;;1871491;76;20175;-89
2021/08/26 12:30:28;;;;;;;;;;;30.10;90.40;;;;;;1884675;75;20200;-93
2021/08/26 12:36:03;;;;;;;;;;;30.10;90.40;;;;;;1823741;76;20103;-93
2021/08/26 12:38:38;;;;;;;;;;;30.10;90.30;;;;;;1811054;77;20349;-95
2021/08/26 12:41:02;;;;;;;;;;;30.00;90.70;;;;;;1739065;79;20175;-95
2021/08/26 12:49:47;;;;;;;;;;;29.90;90.80;;;;;;1768815;77;20159;-96
2021/08/26 12:52:31;;;;;;;;;;;29.70;90.70;;;;;;1800239;77;20196;-93
2021/08/26 12:54:58;;;;;;;;;;;29.70;91.00;;;;;;1689148;82;20216;-96
2021/08/26 12:57:51;;;;;;;;;;;29.50;91.40;;;;;;1602215;85;20197;-96
2021/08/26 13:11:05;;;;;;;;;;;29.40;91.40;;;;;;2028660;69;20230;-89
2021/08/26 13:13:35;;;;;;;;;;;28.60;95.60;;;;;;2004041;70;20235;-88
2021/08/26 13:16:07;;;;;;;;;;;28.40;95.80;;;;;;1990539;70;20199;-88
2021/08/26 13:18:38;;;;;;;;;;;28.20;96.00;;;;;;1977818;70;20210;-88
2021/08/26 13:21:09;;;;;;;;;;;28.10;96.40;;;;;;2008533;70;20180;-89
2021/08/26 13:23:38;;;;;;;;;;;27.90;96.80;;;;;;1994736;72;20727;-88
2021/08/26 13:26:10;;;;;;;;;;;27.80;96.90;;;;;;1993466;72;20224;-88
2021/08/26 13:28:43;;;;;;;;;;;27.60;97.20;;;;;;1952834;72;20164;-89
2021/08/26 13:31:17;;;;;;;;;;;27.50;97.30;;;;;;1956410;72;20259;-89
2021/08/26 13:33:45;;;;;;;;;;;27.40;97.80;;;;;;1948615;72;20128;-90
2021/08/26 13:36:15;;;;;;;;;;;27.40;98.00;;;;;;1944712;74;20183;-89
2021/08/26 13:38:44;;;;;;;;;;;27.30;97.90;;;;;;1960106;72;20193;-90
2021/08/26 13:41:14;;;;;;;;;;;27.20;98.20;;;;;;1952323;72;20165;-90
2021/08/26 13:43:44;;;;;;;;;;;27.10;98.70;;;;;;1971575;72;20173;-90
2021/08/26 13:46:15;;;;;;;;;;;27.10;98.80;;;;;;1967848;72;20242;-89
2021/08/26 13:48:44;;;;;;;;;;;27.10;98.40;;;;;;1952517;72;20404;-90
2021/08/26 13:51:14;;;;;;;;;;;27.00;98.70;;;;;;1915023;72;20165;-90
2021/08/26 13:53:47;;;;;;;;;;;27.00;99.00;;;;;;1949516;73;20180;-90
2021/08/26 13:56:15;;;;;;;;;;;27.00;98.80;;;;;;1956333;72;20313;-90
2021/08/26 13:58:49;;;;;;;;;;;27.10;98.80;;;;;;1972476;72;20147;-90
2021/08/26 14:01:19;;;;;;;;;;;27.00;98.80;;;;;;1963131;72;20156;-89
2021/08/26 14:03:50;;;;;;;;;;;27.00;98.70;;;;;;1963262;72;20208;-89
2021/08/26 14:06:52;;;;;;;;;;;27.00;98.70;;;;;;1990659;72;20214;-89
2021/08/26 14:09:09;;;;;;;;;;;26.90;98.80;;;;;;1934755;72;20300;-88
2021/08/26 14:11:41;;;;;;;;;;;26.90;98.80;;;;;;1962384;72;20183;-89
2021/08/26 14:14:13;;;;;;;;;;;26.80;98.90;;;;;;1947677;72;20202;-91
2021/08/26 14:16:42;;;;;;;;;;;26.80;98.90;;;;;;1949723;72;20262;-89
2021/08/26 14:19:12;;;;;;;;;;;26.90;98.70;;;;;;1922663;73;20355;-90
2021/08/26 14:21:42;;;;;;;;;;;26.90;98.50;;;;;;1962749;72;20168;-91
2021/08/26 14:24:18;;;;;;;;;;;27.00;98.50;;;;;;1952197;74;20214;-89
2021/08/26 14:26:51;;;;;;;;;;;27.00;98.40;;;;;;1946775;73;20471;-87
2021/08/26 14:29:21;;;;;;;;;;;27.00;98.40;;;;;;1935753;74;20690;-88
2021/08/26 14:31:50;;;;;;;;;;;27.00;98.40;;;;;;1943263;74;20202;-89
2021/08/26 14:34:20;;;;;;;;;;;27.00;98.40;;;;;;1942148;74;20183;-89
2021/08/26 14:36:51;;;;;;;;;;;27.00;98.50;;;;;;1942507;73;20179;-89
2021/08/26 14:39:21;;;;;;;;;;;27.00;98.60;;;;;;1953482;72;20156;-89
2021/08/26 14:41:50;;;;;;;;;;;27.00;98.40;;;;;;1950324;73;20187;-88
2021/08/26 14:44:22;;;;;;;;;;;27.00;98.50;;;;;;1980949;71;20216;-88
2021/08/26 14:46:55;;;;;;;;;;;26.90;98.50;;;;;;1935462;73;20259;-89
2021/08/26 14:49:26;;;;;;;;;;;26.90;98.70;;;;;;1972704;72;20183;-89
2021/08/26 14:51:56;;;;;;;;;;;26.80;99.10;;;;;;1959984;72;20169;-89
2021/08/26 14:54:25;;;;;;;;;;;26.80;99.00;;;;;;1958244;72;20174;-89
2021/08/26 14:57:01;;;;;;;;;;;26.80;99.10;;;;;;1995979;72;20489;-87
2021/08/26 14:59:30;;;;;;;;;;;26.90;99.10;;;;;;1953167;72;20169;-88
2021/08/26 15:02:00;;;;;;;;;;;26.90;99.10;;;;;;1952186;72;20181;-88